createdAt,value
2017-09-14T00:00:37.376Z,14.70
2017-09-14T00:03:06.257Z,14.70
2017-09-14T00:05:35.121Z,14.70
2017-09-14T00:08:03.979Z,14.70
2017-09-14T00:10:33.198Z,14.50
2017-09-14T00:13:02.042Z,14.40
2017-09-14T00:15:31.699Z,14.30
2017-09-14T00:18:00.490Z,14.30
2017-09-14T00:20:29.326Z,14.30
2017-09-14T00:22:59.039Z,14.20
2017-09-14T00:25:28.595Z,14.10
2017-09-14T00:27:57.456Z,14.10
2017-09-14T00:30:26.509Z,14.10
2017-09-14T00:32:56.118Z,14.20
2017-09-14T00:35:25.679Z,14.30
2017-09-14T00:37:54.817Z,14.30
2017-09-14T00:40:24.841Z,14.30
2017-09-14T00:42:53.753Z,14.20
2017-09-14T00:45:23.010Z,14.10
2017-09-14T00:47:52.634Z,14.00
2017-09-14T00:50:22.298Z,14.00
2017-09-14T00:52:51.818Z,14.00
2017-09-14T00:55:20.900Z,14.00
2017-09-14T00:57:49.762Z,14.10
2017-09-14T01:00:19.084Z,14.10
2017-09-14T01:02:47.936Z,14.10
2017-09-14T01:05:16.718Z,14.00
2017-09-14T01:07:45.732Z,13.90
2017-09-14T01:10:15.073Z,13.90
2017-09-14T01:12:44.346Z,13.80
2017-09-14T01:15:13.289Z,13.80
2017-09-14T01:17:42.884Z,13.90
2017-09-14T01:20:11.842Z,13.80
2017-09-14T01:22:40.751Z,13.80
2017-09-14T01:25:10.840Z,13.70
2017-09-14T01:27:39.936Z,13.70
2017-09-14T01:30:09.032Z,13.60
2017-09-14T01:32:38.118Z,13.70
2017-09-14T01:35:07.058Z,13.60
2017-09-14T01:37:36.774Z,13.60
2017-09-14T01:40:05.721Z,13.60
2017-09-14T01:42:35.118Z,13.60
2017-09-14T01:45:04.212Z,13.60
2017-09-14T01:47:33.177Z,13.60
2017-09-14T01:50:02.309Z,13.70
2017-09-14T01:52:31.136Z,13.60
2017-09-14T01:55:00.524Z,13.70
2017-09-14T01:57:29.467Z,13.60
2017-09-14T01:59:58.377Z,13.60
2017-09-14T02:02:27.468Z,13.60
2017-09-14T02:04:56.554Z,13.60
2017-09-14T02:07:25.818Z,13.60
2017-09-14T02:09:54.684Z,13.60
2017-09-14T02:12:23.638Z,13.60
2017-09-14T02:14:52.497Z,13.50
2017-09-14T02:17:21.615Z,13.50
2017-09-14T02:19:50.439Z,13.50
2017-09-14T02:22:19.383Z,13.40
2017-09-14T02:24:49.706Z,13.30
2017-09-14T02:27:18.800Z,13.20
2017-09-14T02:29:47.893Z,13.20
2017-09-14T02:32:17.123Z,13.20
2017-09-14T02:34:46.872Z,13.20
2017-09-14T02:37:16.198Z,13.20
2017-09-14T02:39:45.071Z,13.30
2017-09-14T02:42:13.979Z,13.30
2017-09-14T02:44:43.094Z,13.30
2017-09-14T02:47:12.451Z,13.30
2017-09-14T02:49:41.738Z,13.40
2017-09-14T02:52:10.752Z,13.40
2017-09-14T02:54:39.673Z,13.40
2017-09-14T02:57:08.530Z,13.40
2017-09-14T02:59:37.500Z,13.40
2017-09-14T03:02:06.320Z,13.40
2017-09-14T03:04:35.162Z,13.30
2017-09-14T03:07:04.490Z,13.30
2017-09-14T03:09:33.405Z,13.30
2017-09-14T03:12:02.349Z,13.30
2017-09-14T03:14:31.298Z,13.30
2017-09-14T03:17:00.272Z,13.40
2017-09-14T03:19:29.582Z,13.40
2017-09-14T03:21:58.717Z,13.40
2017-09-14T03:24:27.830Z,13.40
2017-09-14T03:26:56.975Z,13.40
2017-09-14T03:29:25.714Z,13.50
2017-09-14T03:31:54.928Z,13.50
2017-09-14T03:34:23.938Z,13.50
2017-09-14T03:36:53.060Z,13.40
2017-09-14T03:39:22.862Z,13.40
2017-09-14T03:41:52.029Z,13.40
2017-09-14T03:44:21.260Z,13.40
2017-09-14T03:46:50.443Z,13.30
2017-09-14T03:49:19.513Z,13.30
2017-09-14T03:51:48.473Z,13.40
2017-09-14T03:54:17.444Z,13.40
2017-09-14T03:56:46.429Z,13.40
2017-09-14T03:59:16.299Z,13.40
2017-09-14T04:01:46.148Z,13.40
2017-09-14T04:04:15.867Z,13.40
2017-09-14T04:06:45.656Z,13.40
2017-09-14T04:09:14.601Z,13.40
2017-09-14T04:11:43.924Z,13.40
2017-09-14T04:14:13.190Z,13.40
2017-09-14T04:16:42.090Z,13.50
2017-09-14T04:19:10.964Z,13.50
2017-09-14T04:21:40.255Z,13.50
2017-09-14T04:24:09.266Z,13.40
2017-09-14T04:26:38.321Z,13.40
2017-09-14T04:29:08.265Z,13.40
2017-09-14T04:31:37.273Z,13.40
2017-09-14T04:34:06.373Z,13.40
2017-09-14T04:36:35.190Z,13.40
2017-09-14T04:39:04.302Z,13.50
2017-09-14T04:41:33.881Z,13.50
2017-09-14T04:44:03.848Z,13.40
2017-09-14T04:46:32.776Z,13.40
2017-09-14T04:49:01.579Z,13.40
2017-09-14T04:51:31.516Z,13.40
2017-09-14T04:54:01.394Z,13.30
2017-09-14T04:56:30.422Z,13.30
2017-09-14T04:59:00.277Z,13.30
2017-09-14T05:01:29.217Z,13.30
2017-09-14T05:03:59.493Z,13.30
2017-09-14T05:06:28.434Z,13.30
2017-09-14T05:08:58.229Z,13.40
2017-09-14T05:11:27.207Z,13.30
2017-09-14T05:13:56.142Z,13.30
2017-09-14T05:16:25.362Z,13.30
2017-09-14T05:18:54.176Z,13.30
2017-09-14T05:21:23.194Z,13.30
2017-09-14T05:23:53.201Z,13.30
2017-09-14T05:26:23.109Z,13.30
2017-09-14T05:28:52.008Z,13.30
2017-09-14T05:31:22.042Z,13.30
2017-09-14T05:33:51.066Z,13.30
2017-09-14T05:36:20.015Z,13.30
2017-09-14T05:38:49.820Z,13.30
2017-09-14T05:41:19.642Z,13.30
2017-09-14T05:43:49.798Z,13.30
2017-09-14T05:46:19.137Z,13.30
2017-09-14T05:48:48.147Z,13.30
2017-09-14T05:51:17.938Z,13.30
2017-09-14T05:53:46.880Z,13.30
2017-09-14T05:56:15.893Z,13.30
2017-09-14T05:58:45.343Z,13.30
2017-09-14T06:01:15.306Z,13.40
2017-09-14T06:03:44.363Z,13.40
2017-09-14T06:06:13.712Z,13.40
2017-09-14T06:08:43.027Z,13.40
2017-09-14T06:11:11.882Z,13.40
2017-09-14T06:13:40.731Z,13.40
2017-09-14T06:16:10.386Z,13.40
2017-09-14T06:18:39.598Z,13.40
2017-09-14T06:21:08.479Z,13.50
2017-09-14T06:23:37.289Z,13.50
2017-09-14T06:26:06.938Z,13.40
2017-09-14T06:28:35.803Z,13.40
2017-09-14T06:31:06.027Z,13.40
2017-09-14T06:33:35.913Z,13.40
2017-09-14T06:36:04.834Z,13.40
2017-09-14T06:38:34.057Z,13.40
2017-09-14T06:41:03.006Z,13.30
2017-09-14T06:43:32.733Z,13.30
2017-09-14T06:46:01.649Z,13.20
2017-09-14T06:48:30.447Z,13.30
2017-09-14T06:50:59.747Z,13.40
2017-09-14T06:53:28.547Z,13.50
2017-09-14T06:55:58.310Z,13.50
2017-09-14T06:58:27.428Z,13.60
2017-09-14T07:00:56.371Z,13.60
2017-09-14T07:03:25.921Z,13.50
2017-09-14T07:05:54.969Z,13.50
2017-09-14T07:08:24.541Z,13.40
2017-09-14T07:10:53.453Z,13.30
2017-09-14T07:13:23.079Z,13.30
2017-09-14T07:15:52.661Z,13.30
2017-09-14T07:18:21.521Z,13.20
2017-09-14T07:20:50.832Z,13.20
2017-09-14T07:23:19.734Z,13.20
2017-09-14T07:25:48.669Z,13.20
2017-09-14T07:28:17.790Z,13.20
2017-09-14T07:30:46.827Z,13.10
2017-09-14T07:33:17.186Z,13.00
2017-09-14T07:35:46.247Z,12.90
2017-09-14T07:38:16.657Z,13.10
2017-09-14T07:40:45.866Z,13.00
2017-09-14T07:43:15.654Z,13.20
2017-09-14T07:45:44.746Z,13.10
2017-09-14T07:48:14.073Z,13.30
2017-09-14T07:50:43.069Z,13.30
2017-09-14T07:53:12.702Z,13.40
2017-09-14T07:55:41.728Z,13.30
2017-09-14T07:58:10.945Z,13.30
2017-09-14T08:00:39.979Z,13.40
2017-09-14T08:03:09.258Z,13.40
2017-09-14T08:05:39.070Z,13.50
2017-09-14T08:08:08.946Z,13.60
2017-09-14T08:10:37.823Z,13.70
2017-09-14T08:13:06.778Z,13.80
2017-09-14T08:15:35.988Z,13.80
2017-09-14T08:18:04.889Z,13.80
2017-09-14T08:20:33.799Z,13.80
2017-09-14T08:23:02.989Z,13.90
2017-09-14T08:25:31.892Z,14.10
2017-09-14T08:28:00.861Z,14.00
2017-09-14T08:30:29.849Z,13.80
2017-09-14T08:32:58.931Z,13.90
2017-09-14T08:35:28.226Z,14.00
2017-09-14T08:37:57.254Z,14.00
2017-09-14T08:40:26.433Z,14.10
2017-09-14T08:42:55.476Z,13.90
2017-09-14T08:45:25.329Z,13.90
2017-09-14T08:47:54.353Z,13.90
2017-09-14T08:50:23.409Z,13.90
2017-09-14T08:52:52.429Z,14.10
2017-09-14T08:55:21.397Z,14.00
2017-09-14T08:57:50.521Z,14.00
2017-09-14T09:00:19.618Z,14.00
2017-09-14T09:02:48.628Z,14.00
2017-09-14T09:05:18.124Z,14.00
2017-09-14T09:07:47.378Z,14.20
2017-09-14T09:10:17.516Z,14.40
2017-09-14T09:12:46.352Z,14.40
2017-09-14T09:15:15.201Z,14.40
2017-09-14T09:17:44.662Z,14.30
2017-09-14T09:20:13.900Z,14.30
2017-09-14T09:22:42.942Z,14.10
2017-09-14T09:25:12.731Z,14.20
2017-09-14T09:27:41.638Z,14.20
2017-09-14T09:30:11.390Z,14.80
2017-09-14T09:32:40.200Z,14.80
2017-09-14T09:35:09.260Z,15.40
2017-09-14T09:37:38.363Z,15.50
2017-09-14T09:40:07.385Z,15.30
2017-09-14T09:42:36.326Z,15.20
2017-09-14T09:45:05.458Z,15.30
2017-09-14T09:47:34.742Z,15.60
2017-09-14T09:50:03.799Z,15.40
2017-09-14T09:52:33.672Z,16.10
2017-09-14T09:55:02.771Z,16.10
2017-09-14T09:57:31.848Z,15.90
2017-09-14T10:00:00.998Z,15.30
2017-09-14T10:02:30.848Z,15.00
2017-09-14T10:04:59.695Z,15.00
2017-09-14T10:07:29.542Z,14.60
2017-09-14T10:09:58.378Z,14.60
2017-09-14T10:12:27.321Z,14.60
2017-09-14T10:14:56.276Z,14.90
2017-09-14T10:17:25.885Z,14.80
2017-09-14T10:19:55.663Z,14.90
2017-09-14T10:22:24.748Z,14.90
2017-09-14T10:24:53.758Z,14.80
2017-09-14T10:27:22.705Z,14.70
2017-09-14T10:29:51.949Z,14.60
2017-09-14T10:32:21.020Z,14.60
2017-09-14T10:34:50.328Z,15.00
2017-09-14T10:37:19.373Z,15.00
2017-09-14T10:39:48.319Z,15.20
2017-09-14T10:42:17.623Z,14.90
2017-09-14T10:44:46.602Z,15.10
2017-09-14T10:47:15.707Z,14.70
2017-09-14T10:49:44.724Z,14.50
2017-09-14T10:52:13.710Z,14.20
2017-09-14T10:54:42.718Z,13.80
2017-09-14T10:57:11.697Z,13.20
2017-09-14T10:59:41.275Z,12.30
2017-09-14T11:02:10.128Z,12.30
2017-09-14T11:04:39.059Z,12.20
2017-09-14T11:08:37.414Z,12.20
2017-09-14T11:11:06.338Z,12.10
2017-09-14T11:13:36.074Z,12.40
2017-09-14T11:16:05.046Z,12.40
2017-09-14T11:18:35.930Z,12.70
2017-09-14T11:21:05.486Z,12.70
2017-09-14T11:23:35.123Z,12.90
2017-09-14T11:26:04.278Z,12.90
2017-09-14T11:28:33.081Z,13.10
2017-09-14T11:31:02.830Z,13.10
2017-09-14T11:33:31.927Z,13.10
2017-09-14T11:36:01.068Z,13.20
2017-09-14T11:38:31.097Z,13.40
2017-09-14T11:41:00.840Z,13.90
2017-09-14T11:43:30.913Z,13.80
2017-09-14T11:46:00.999Z,13.80
2017-09-14T11:48:30.253Z,13.80
2017-09-14T11:51:00.375Z,14.30
2017-09-14T11:53:29.515Z,14.20
2017-09-14T11:55:58.952Z,14.80
2017-09-14T11:58:28.918Z,15.60
2017-09-14T12:00:58.015Z,15.50
2017-09-14T12:03:27.060Z,16.00
2017-09-14T12:05:55.986Z,16.30
2017-09-14T12:08:26.109Z,16.50
2017-09-14T12:10:55.802Z,16.50
2017-09-14T12:13:25.791Z,16.80
2017-09-14T12:15:55.626Z,17.50
2017-09-14T12:18:25.477Z,17.90
2017-09-14T12:20:54.647Z,17.90
2017-09-14T12:23:23.605Z,18.00
2017-09-14T12:25:52.441Z,18.10
2017-09-14T12:28:21.307Z,18.50
2017-09-14T12:30:51.057Z,17.90
2017-09-14T12:33:19.989Z,17.90
2017-09-14T12:35:48.796Z,17.20
2017-09-14T12:38:18.419Z,14.30
2017-09-14T12:40:47.246Z,14.20
2017-09-14T12:43:16.171Z,13.10
2017-09-14T12:45:45.806Z,12.40
2017-09-14T12:48:15.254Z,12.30
2017-09-14T12:50:44.710Z,12.10
2017-09-14T12:53:13.720Z,12.20
2017-09-14T12:55:42.806Z,12.20
2017-09-14T12:58:11.946Z,12.40
2017-09-14T13:00:41.099Z,12.60
2017-09-14T13:03:10.547Z,13.00
2017-09-14T13:05:40.358Z,14.20
2017-09-14T13:08:09.352Z,14.20
2017-09-14T13:10:39.310Z,14.80
2017-09-14T13:13:08.349Z,14.80
2017-09-14T13:15:37.578Z,14.60
2017-09-14T13:18:07.426Z,14.60
2017-09-14T13:20:37.239Z,14.50
2017-09-14T13:23:06.175Z,14.40
2017-09-14T13:25:35.814Z,14.80
2017-09-14T13:28:05.195Z,14.70
2017-09-14T13:30:35.240Z,14.60
2017-09-14T13:33:04.846Z,14.50
2017-09-14T13:35:34.499Z,14.40
2017-09-14T13:38:03.419Z,14.20
2017-09-14T13:40:33.102Z,13.80
2017-09-14T13:43:02.170Z,13.80
2017-09-14T13:45:31.660Z,13.90
2017-09-14T13:48:00.790Z,14.00
2017-09-14T13:50:30.080Z,14.20
2017-09-14T13:52:59.202Z,14.40
2017-09-14T13:55:31.405Z,14.30
2017-09-14T13:58:00.551Z,14.30
2017-09-14T14:00:30.405Z,14.20
2017-09-14T14:02:59.923Z,14.20
2017-09-14T14:05:28.763Z,14.50
2017-09-14T14:07:58.603Z,14.30
2017-09-14T14:10:27.546Z,14.30
2017-09-14T14:12:56.675Z,14.20
2017-09-14T14:15:27.270Z,14.10
2017-09-14T14:17:56.436Z,14.10
2017-09-14T14:20:25.326Z,14.00
2017-09-14T14:22:54.214Z,14.00
2017-09-14T14:25:23.025Z,13.90
2017-09-14T14:27:52.283Z,14.10
2017-09-14T14:30:21.197Z,13.90
2017-09-14T14:32:50.261Z,13.80
2017-09-14T14:35:19.236Z,13.70
2017-09-14T14:37:48.289Z,13.90
2017-09-14T14:40:17.451Z,13.70
2017-09-14T14:42:46.679Z,13.70
2017-09-14T14:45:16.163Z,13.60
2017-09-14T14:47:45.588Z,13.70
2017-09-14T14:50:14.742Z,13.50
2017-09-14T14:52:43.721Z,13.60
2017-09-14T14:55:12.870Z,13.70
2017-09-14T14:57:42.284Z,13.70
2017-09-14T15:00:11.445Z,13.60
2017-09-14T15:02:40.500Z,13.40
2017-09-14T15:05:10.170Z,13.50
2017-09-14T15:07:39.353Z,13.50
2017-09-14T15:10:11.352Z,13.20
2017-09-14T15:12:45.645Z,13.20
2017-09-14T15:15:18.294Z,13.10
2017-09-14T15:17:50.737Z,13.40
2017-09-14T15:20:22.148Z,12.70
2017-09-14T15:22:52.901Z,12.70
2017-09-14T15:25:25.421Z,12.10
2017-09-14T15:27:58.417Z,12.10
2017-09-14T15:30:28.630Z,12.00
2017-09-14T15:32:59.436Z,11.70
2017-09-14T15:35:29.345Z,11.40
2017-09-14T15:37:58.354Z,10.90
2017-09-14T15:42:35.724Z,10.50
2017-09-14T15:46:10.465Z,10.10
2017-09-14T15:48:43.744Z,10.10
2017-09-14T15:52:17.909Z,9.90
2017-09-14T15:54:46.919Z,9.90
2017-09-14T15:57:16.071Z,10.00
2017-09-14T15:59:45.201Z,10.10
2017-09-14T16:02:14.519Z,10.10
2017-09-14T16:04:43.796Z,10.20
2017-09-14T16:07:12.755Z,10.30
2017-09-14T16:09:41.677Z,10.30
2017-09-14T16:12:11.397Z,10.30
2017-09-14T16:14:40.276Z,10.30
2017-09-14T16:17:09.276Z,10.40
2017-09-14T16:19:38.279Z,10.40
2017-09-14T16:22:07.534Z,10.40
2017-09-14T16:24:36.731Z,10.40
2017-09-14T16:27:05.611Z,10.40
2017-09-14T16:29:34.481Z,10.40
2017-09-14T16:32:03.372Z,10.40
2017-09-14T16:34:33.471Z,10.40
2017-09-14T16:37:03.080Z,10.40
2017-09-14T16:39:32.877Z,10.40
2017-09-14T16:42:01.864Z,10.40
2017-09-14T16:44:30.750Z,10.40
2017-09-14T16:46:59.745Z,10.50
2017-09-14T16:49:28.658Z,10.50
2017-09-14T16:51:58.506Z,10.40
2017-09-14T16:54:27.469Z,10.40
2017-09-14T16:56:57.394Z,10.40
2017-09-14T16:59:26.270Z,10.40
2017-09-14T17:01:56.137Z,10.40
2017-09-14T17:04:25.350Z,10.40
2017-09-14T17:06:55.270Z,10.50
2017-09-14T17:09:25.514Z,10.50
2017-09-14T17:11:54.517Z,10.50
2017-09-14T17:14:24.281Z,10.50
2017-09-14T17:16:53.595Z,10.50
2017-09-14T17:19:22.707Z,10.50
2017-09-14T17:21:52.559Z,10.50
2017-09-14T17:24:22.109Z,10.50
2017-09-14T17:26:51.066Z,10.60
2017-09-14T17:29:20.163Z,10.60
2017-09-14T17:31:49.099Z,10.60
2017-09-14T17:34:19.118Z,10.60
2017-09-14T17:36:49.170Z,10.60
2017-09-14T17:39:18.273Z,10.60
2017-09-14T17:41:47.590Z,10.70
2017-09-14T17:44:17.425Z,10.70
2017-09-14T17:46:47.836Z,10.70
2017-09-14T17:49:16.962Z,10.70
2017-09-14T17:51:46.607Z,10.70
2017-09-14T17:54:15.589Z,10.70
2017-09-14T17:56:44.620Z,10.80
2017-09-14T17:59:14.042Z,10.80
2017-09-14T18:01:43.062Z,10.80
2017-09-14T18:04:12.150Z,10.80
2017-09-14T18:06:42.433Z,10.80
2017-09-14T18:09:12.061Z,10.80
2017-09-14T18:11:41.823Z,10.90
2017-09-14T18:14:10.730Z,10.80
2017-09-14T18:16:40.146Z,10.90
2017-09-14T18:19:09.915Z,10.90
2017-09-14T18:21:39.224Z,10.90
2017-09-14T18:24:08.664Z,10.90
2017-09-14T18:26:39.475Z,10.90
2017-09-14T18:29:08.877Z,10.90
2017-09-14T18:31:37.920Z,11.00
2017-09-14T18:34:07.249Z,11.00
2017-09-14T18:36:36.265Z,11.00
2017-09-14T18:39:06.494Z,11.00
2017-09-14T18:41:35.462Z,11.00
2017-09-14T18:44:04.408Z,11.10
2017-09-14T18:46:37.505Z,11.10
2017-09-14T18:49:06.756Z,11.10
2017-09-14T18:51:36.365Z,11.00
2017-09-14T18:54:07.409Z,11.10
2017-09-14T18:56:36.376Z,11.10
2017-09-14T18:59:06.030Z,11.10
2017-09-14T19:02:35.825Z,11.20
2017-09-14T19:05:04.758Z,11.20
2017-09-14T19:07:33.876Z,11.20
2017-09-14T19:10:02.985Z,11.20
2017-09-14T19:12:32.142Z,11.20
2017-09-14T19:15:01.056Z,11.20
2017-09-14T19:17:30.353Z,11.20
2017-09-14T19:19:59.270Z,11.20
2017-09-14T19:22:28.203Z,11.20
2017-09-14T19:24:57.839Z,11.20
2017-09-14T19:27:27.221Z,11.20
2017-09-14T19:29:56.488Z,11.30
2017-09-14T19:32:26.381Z,11.30
2017-09-14T19:34:55.612Z,11.30
2017-09-14T19:37:25.687Z,11.30
2017-09-14T19:39:54.980Z,11.30
2017-09-14T19:42:24.154Z,11.30
2017-09-14T19:44:54.985Z,11.30
2017-09-14T19:47:24.196Z,11.30
2017-09-14T19:49:53.337Z,11.30
2017-09-14T19:52:23.111Z,11.30
2017-09-14T19:54:52.171Z,11.20
2017-09-14T19:57:27.841Z,11.20
2017-09-14T19:59:57.935Z,11.30
2017-09-14T20:02:27.736Z,11.30
2017-09-14T20:04:56.919Z,11.20
2017-09-14T20:07:28.375Z,11.30
2017-09-14T20:10:14.845Z,11.20
2017-09-14T20:12:46.297Z,11.30
2017-09-14T20:15:20.246Z,11.30
2017-09-14T20:17:50.224Z,11.30
2017-09-14T20:20:21.328Z,11.30
2017-09-14T20:22:50.596Z,11.30
2017-09-14T20:25:22.089Z,11.30
2017-09-14T20:27:52.022Z,11.30
2017-09-14T20:30:22.469Z,11.30
2017-09-14T20:32:52.254Z,11.30
2017-09-14T20:35:21.188Z,11.30
2017-09-14T20:37:50.437Z,11.30
2017-09-14T20:40:20.197Z,11.40
2017-09-14T20:42:49.902Z,11.40
2017-09-14T20:45:19.649Z,11.40
2017-09-14T20:47:48.464Z,11.40
2017-09-14T20:50:17.655Z,11.40
2017-09-14T20:52:46.746Z,11.40
2017-09-14T20:55:15.838Z,11.40
2017-09-14T20:57:44.728Z,11.40
2017-09-14T21:00:14.008Z,11.40
2017-09-14T21:02:43.203Z,11.40
2017-09-14T21:05:12.215Z,11.40
2017-09-14T21:07:41.216Z,11.40
2017-09-14T21:10:10.447Z,11.30
2017-09-14T21:12:40.552Z,11.40
2017-09-14T21:15:10.261Z,11.40
2017-09-14T21:17:39.225Z,11.40
2017-09-14T21:20:08.483Z,11.40
2017-09-14T21:22:37.531Z,11.40
2017-09-14T21:25:06.619Z,11.40
2017-09-14T21:27:35.586Z,11.50
2017-09-14T21:30:04.859Z,11.50
2017-09-14T21:32:33.758Z,11.50
2017-09-14T21:35:02.722Z,11.50
2017-09-14T21:37:32.403Z,11.50
2017-09-14T21:40:01.522Z,11.50
2017-09-14T21:42:31.439Z,11.50
2017-09-14T21:45:01.190Z,11.50
2017-09-14T21:47:30.134Z,11.50
2017-09-14T21:49:59.837Z,11.60
2017-09-14T21:52:29.626Z,11.60
2017-09-14T21:54:59.692Z,11.50
2017-09-14T21:57:28.972Z,11.50
2017-09-14T21:59:58.749Z,11.50
2017-09-14T22:02:27.777Z,11.50
2017-09-14T22:04:56.853Z,11.50
2017-09-14T22:07:26.597Z,11.40
2017-09-14T22:09:55.405Z,11.40
2017-09-14T22:12:24.447Z,11.40
2017-09-14T22:14:54.001Z,11.40
2017-09-14T22:17:22.868Z,11.40
2017-09-14T22:19:51.747Z,11.40
2017-09-14T22:22:20.829Z,11.50
2017-09-14T22:24:50.050Z,11.40
2017-09-14T22:27:19.936Z,11.50
2017-09-14T22:29:49.059Z,11.40
2017-09-14T22:32:18.226Z,11.40
2017-09-14T22:34:48.228Z,11.40
2017-09-14T22:37:17.438Z,11.40
2017-09-14T22:39:47.137Z,11.40
2017-09-14T22:42:16.869Z,11.40
2017-09-14T22:44:46.873Z,11.40
2017-09-14T22:47:16.525Z,11.30
2017-09-14T22:49:45.442Z,11.30
2017-09-14T22:52:14.440Z,11.30
2017-09-14T22:54:43.337Z,11.30
2017-09-14T22:57:13.274Z,11.40
2017-09-14T22:59:43.102Z,11.40
2017-09-14T23:02:12.235Z,11.40
2017-09-14T23:04:41.184Z,11.50
2017-09-14T23:07:10.379Z,11.50
2017-09-14T23:09:39.296Z,11.40
2017-09-14T23:12:08.233Z,11.50
2017-09-14T23:14:38.116Z,11.40
2017-09-14T23:17:07.022Z,11.40
2017-09-14T23:19:36.336Z,11.40
2017-09-14T23:22:06.801Z,11.50
2017-09-14T23:24:35.890Z,11.50
2017-09-14T23:27:05.199Z,11.50
2017-09-14T23:29:34.376Z,11.50
2017-09-14T23:32:03.430Z,11.50
2017-09-14T23:34:33.332Z,11.40
2017-09-14T23:37:02.310Z,11.40
2017-09-14T23:39:31.700Z,11.40
2017-09-14T23:42:01.037Z,11.40
2017-09-14T23:44:30.258Z,11.40
2017-09-14T23:47:00.116Z,11.20
2017-09-14T23:49:29.289Z,11.20
2017-09-14T23:51:58.774Z,11.20
2017-09-14T23:54:27.622Z,11.20
2017-09-14T23:56:56.812Z,11.10
2017-09-14T23:59:26.127Z,11.10
